createdAt,value
2023-05-22T00:01:06.865Z,4.85
2023-05-22T00:03:37.453Z,4.70
2023-05-22T00:06:06.314Z,4.60
2023-05-22T00:08:34.478Z,4.57
2023-05-22T00:11:02.574Z,4.35
2023-05-22T00:13:31.008Z,4.45
2023-05-22T00:15:59.211Z,4.43
2023-05-22T00:18:28.128Z,4.40
2023-05-22T00:20:58.161Z,4.50
2023-05-22T00:23:27.999Z,4.93
2023-05-22T00:25:56.075Z,4.78
2023-05-22T00:28:24.221Z,5.05
2023-05-22T00:30:52.365Z,4.70
2023-05-22T00:33:20.606Z,5.20
2023-05-22T00:35:48.954Z,4.72
2023-05-22T00:38:32.309Z,4.88
2023-05-22T00:41:00.548Z,4.75
2023-05-22T00:43:28.885Z,5.07
2023-05-22T00:45:57.216Z,4.57
2023-05-22T00:48:26.062Z,4.90
2023-05-22T00:50:55.987Z,5.45
2023-05-22T00:53:28.179Z,5.22
2023-05-22T00:55:59.829Z,5.22
2023-05-22T00:58:28.641Z,5.07
2023-05-22T01:00:57.705Z,4.97
2023-05-22T01:03:27.697Z,5.30
2023-05-22T01:05:56.607Z,5.13
2023-05-22T01:08:25.025Z,5.95
2023-05-22T01:10:59.427Z,5.53
2023-05-22T01:13:40.477Z,5.60
2023-05-22T01:16:14.389Z,4.70
2023-05-22T01:18:48.215Z,4.47
2023-05-22T01:21:25.195Z,5.20
2023-05-22T01:24:18.644Z,5.07
2023-05-22T01:27:19.728Z,4.78
2023-05-22T01:29:55.996Z,4.70
2023-05-22T01:32:27.162Z,4.97
2023-05-22T01:35:01.239Z,4.30
2023-05-22T01:37:29.830Z,4.78
2023-05-22T01:39:59.074Z,5.25
2023-05-22T01:42:27.637Z,4.63
2023-05-22T01:44:55.799Z,4.78
2023-05-22T01:47:25.385Z,4.80
2023-05-22T01:49:54.187Z,4.75
2023-05-22T01:52:35.757Z,4.40
2023-05-22T01:55:13.556Z,4.55
2023-05-22T01:57:48.600Z,4.50
2023-05-22T02:00:18.634Z,4.53
2023-05-22T02:02:52.790Z,4.90
2023-05-22T02:05:24.635Z,4.85
2023-05-22T02:07:54.823Z,4.82
2023-05-22T02:10:23.960Z,4.18
2023-05-22T02:12:52.268Z,4.40
2023-05-22T02:15:21.366Z,4.90
2023-05-22T02:17:53.314Z,5.22
2023-05-22T02:20:21.681Z,5.18
2023-05-22T02:22:49.927Z,5.15
2023-05-22T02:25:18.653Z,5.50
2023-05-22T02:27:47.849Z,5.07
2023-05-22T02:30:16.731Z,5.35
2023-05-22T02:32:44.972Z,5.88
2023-05-22T02:35:14.615Z,5.40
2023-05-22T02:37:42.767Z,5.80
2023-05-22T02:40:11.786Z,5.78
2023-05-22T02:42:39.887Z,5.90
2023-05-22T02:45:09.514Z,5.43
2023-05-22T02:47:37.791Z,5.05
2023-05-22T02:50:06.669Z,5.35
2023-05-22T02:52:37.216Z,6.45
2023-05-22T02:55:05.970Z,5.80
2023-05-22T02:57:34.080Z,6.20
2023-05-22T03:00:02.169Z,6.13
2023-05-22T03:02:32.590Z,5.97
2023-05-22T03:05:00.825Z,6.30
2023-05-22T03:07:31.897Z,6.20
2023-05-22T03:10:01.469Z,6.50
2023-05-22T03:12:29.586Z,6.20
2023-05-22T03:14:57.758Z,6.15
2023-05-22T03:17:25.898Z,5.68
2023-05-22T03:19:54.099Z,5.45
2023-05-22T03:22:23.321Z,5.70
2023-05-22T03:24:52.456Z,5.65
2023-05-22T03:27:21.957Z,4.75
2023-05-22T03:29:50.190Z,4.60
2023-05-22T03:32:18.371Z,4.45
2023-05-22T03:34:46.483Z,4.95
2023-05-22T03:37:14.624Z,5.35
2023-05-22T03:39:42.845Z,5.13
2023-05-22T03:42:10.968Z,5.10
2023-05-22T03:44:40.586Z,5.45
2023-05-22T03:47:08.776Z,5.60
2023-05-22T03:49:36.930Z,5.28
2023-05-22T03:52:06.075Z,5.50
2023-05-22T03:54:34.244Z,5.30
2023-05-22T03:57:02.367Z,5.45
2023-05-22T03:59:30.494Z,6.13
2023-05-22T04:02:01.347Z,5.65
2023-05-22T04:04:29.857Z,5.68
2023-05-22T04:06:58.308Z,6.10
2023-05-22T04:09:28.368Z,5.60
2023-05-22T04:11:56.568Z,5.40
2023-05-22T04:14:24.808Z,5.65
2023-05-22T04:16:52.956Z,5.60
2023-05-22T04:19:22.649Z,5.78
2023-05-22T04:21:51.160Z,5.70
2023-05-22T04:24:19.440Z,5.57
2023-05-22T04:26:47.984Z,5.20
2023-05-22T04:29:16.572Z,6.20
2023-05-22T04:31:44.884Z,5.55
2023-05-22T04:34:14.087Z,6.05
2023-05-22T04:36:45.376Z,6.05
2023-05-22T04:39:14.354Z,5.35
2023-05-22T04:41:43.022Z,5.43
2023-05-22T04:44:11.218Z,5.22
2023-05-22T04:46:39.620Z,5.60
2023-05-22T04:49:08.594Z,5.68
2023-05-22T04:51:36.769Z,5.68
2023-05-22T04:54:06.401Z,5.30
2023-05-22T04:56:36.778Z,5.65
2023-05-22T04:59:09.348Z,5.57
2023-05-22T05:01:38.062Z,5.47
2023-05-22T05:04:06.614Z,5.97
2023-05-22T05:06:35.945Z,5.90
2023-05-22T05:09:05.694Z,5.88
2023-05-22T05:11:34.226Z,5.50
2023-05-22T05:14:02.464Z,5.68
2023-05-22T05:16:30.765Z,5.85
2023-05-22T05:18:59.011Z,6.10
2023-05-22T05:21:28.137Z,6.18
2023-05-22T05:23:56.327Z,5.90
2023-05-22T05:26:27.318Z,5.20
2023-05-22T05:28:56.804Z,4.72
2023-05-22T05:31:25.164Z,4.72
2023-05-22T05:33:53.348Z,4.43
2023-05-22T05:36:21.469Z,4.97
2023-05-22T05:38:49.588Z,4.43
2023-05-22T05:41:19.161Z,4.55
2023-05-22T05:43:48.730Z,4.50
2023-05-22T05:46:16.974Z,4.40
2023-05-22T05:48:45.279Z,5.10
2023-05-22T05:51:13.546Z,5.10
2023-05-22T05:53:41.954Z,5.18
2023-05-22T05:56:10.525Z,5.03
2023-05-22T05:58:39.232Z,4.82
2023-05-22T06:01:08.727Z,5.45
2023-05-22T06:03:36.953Z,4.53
2023-05-22T06:06:05.725Z,4.85
2023-05-22T06:08:34.558Z,4.90
2023-05-22T06:11:03.512Z,4.80
2023-05-22T06:13:31.689Z,5.10
2023-05-22T06:16:02.811Z,4.70
2023-05-22T06:18:34.554Z,4.93
2023-05-22T06:21:03.088Z,4.30
2023-05-22T06:23:32.401Z,4.50
2023-05-22T06:26:00.708Z,4.90
2023-05-22T06:28:28.891Z,4.03
2023-05-22T06:30:57.314Z,4.30
2023-05-22T06:33:25.522Z,4.55
2023-05-22T06:35:55.589Z,3.55
2023-05-22T06:38:23.777Z,3.95
2023-05-22T06:40:52.012Z,3.72
2023-05-22T06:43:20.150Z,3.80
2023-05-22T06:45:48.341Z,3.58
2023-05-22T06:48:16.949Z,3.58
2023-05-22T06:50:45.127Z,3.60
2023-05-22T06:53:14.709Z,3.97
2023-05-22T06:55:43.134Z,4.00
2023-05-22T06:58:11.343Z,3.97
2023-05-22T07:00:39.887Z,3.58
2023-05-22T07:03:08.238Z,3.95
2023-05-22T07:05:36.862Z,3.55
2023-05-22T07:08:05.334Z,3.75
2023-05-22T07:10:35.126Z,3.63
2023-05-22T07:13:03.329Z,3.38
2023-05-22T07:15:31.509Z,3.08
2023-05-22T07:17:59.705Z,3.75
2023-05-22T07:20:28.021Z,3.50
2023-05-22T07:22:56.183Z,3.80
2023-05-22T07:25:24.266Z,3.35
2023-05-22T07:27:53.824Z,3.53
2023-05-22T07:30:21.968Z,3.40
2023-05-22T07:32:50.116Z,3.38
2023-05-22T07:35:18.407Z,3.30
2023-05-22T07:37:46.502Z,3.30
2023-05-22T07:40:14.821Z,3.22
2023-05-22T07:42:43.137Z,3.00
2023-05-22T07:45:13.180Z,3.40
2023-05-22T07:47:41.460Z,3.10
2023-05-22T07:50:10.530Z,3.75
2023-05-22T07:52:38.670Z,3.50
2023-05-22T07:55:08.668Z,3.42
2023-05-22T07:57:36.927Z,3.58
2023-05-22T08:00:14.046Z,3.50
2023-05-22T08:02:44.040Z,3.63
2023-05-22T08:05:12.616Z,3.30
2023-05-22T08:07:40.976Z,3.60
2023-05-22T08:10:15.278Z,3.83
2023-05-22T08:12:43.396Z,3.78
2023-05-22T08:15:12.902Z,3.97
2023-05-22T08:17:41.227Z,3.83
2023-05-22T08:20:12.108Z,3.58
2023-05-22T08:22:41.428Z,3.83
2023-05-22T08:25:10.633Z,3.40
2023-05-22T08:27:38.817Z,3.58
2023-05-22T08:30:08.419Z,3.53
2023-05-22T08:32:36.656Z,3.97
2023-05-22T08:35:05.260Z,3.65
2023-05-22T08:37:34.776Z,3.38
2023-05-22T08:40:02.886Z,3.40
2023-05-22T08:42:31.096Z,3.42
2023-05-22T08:45:01.205Z,3.45
2023-05-22T08:47:29.777Z,3.40
2023-05-22T08:50:00.484Z,3.33
2023-05-22T08:52:34.547Z,3.20
2023-05-22T08:55:06.287Z,3.42
2023-05-22T08:57:35.528Z,3.47
2023-05-22T09:00:04.412Z,3.42
2023-05-22T09:02:33.485Z,3.30
2023-05-22T09:05:05.450Z,3.33
2023-05-22T09:07:33.663Z,3.90
2023-05-22T09:10:05.434Z,3.10
2023-05-22T09:12:34.021Z,3.08
2023-05-22T09:15:11.359Z,3.33
2023-05-22T09:17:41.737Z,3.10
2023-05-22T09:20:13.419Z,3.08
2023-05-22T09:22:41.658Z,3.42
2023-05-22T09:25:18.816Z,3.15
2023-05-22T09:27:47.347Z,3.15
2023-05-22T09:30:17.609Z,3.40
2023-05-22T09:32:46.977Z,3.15
2023-05-22T09:35:15.505Z,3.30
2023-05-22T09:37:43.764Z,3.08
2023-05-22T09:40:15.065Z,3.22
2023-05-22T09:42:46.094Z,3.25
2023-05-22T09:45:14.296Z,3.10
2023-05-22T09:47:42.471Z,3.20
2023-05-22T09:50:11.303Z,3.13
2023-05-22T09:52:39.583Z,3.22
2023-05-22T09:55:09.381Z,2.97
2023-05-22T09:57:44.033Z,3.00
2023-05-22T10:00:15.607Z,3.40
2023-05-22T10:02:47.054Z,3.25
2023-05-22T10:05:21.778Z,2.80
2023-05-22T10:07:52.037Z,2.55
2023-05-22T10:10:22.728Z,3.10
2023-05-22T10:12:58.601Z,2.83
2023-05-22T10:15:27.965Z,2.78
2023-05-22T10:17:56.516Z,2.92
2023-05-22T10:20:26.620Z,3.35
2023-05-22T10:22:55.763Z,3.10
2023-05-22T10:25:24.271Z,3.22
2023-05-22T10:27:56.115Z,3.17
2023-05-22T10:30:32.789Z,3.15
2023-05-22T10:33:09.284Z,3.13
2023-05-22T10:35:51.283Z,3.63
2023-05-22T10:38:51.834Z,3.20
2023-05-22T10:41:20.356Z,3.47
2023-05-22T10:43:52.144Z,3.00
2023-05-22T10:46:20.416Z,3.50
2023-05-22T10:48:49.874Z,2.90
2023-05-22T10:51:22.106Z,3.30
2023-05-22T10:53:54.301Z,3.25
2023-05-22T10:56:25.294Z,3.38
2023-05-22T10:59:02.834Z,3.45
2023-05-22T11:01:31.141Z,3.38
2023-05-22T11:04:01.040Z,3.65
2023-05-22T11:06:41.160Z,3.33
2023-05-22T11:09:20.015Z,3.47
2023-05-22T11:11:49.006Z,3.20
2023-05-22T11:14:21.593Z,3.80
2023-05-22T11:16:49.947Z,3.80
2023-05-22T11:19:23.431Z,3.47
2023-05-22T11:21:52.318Z,3.80
2023-05-22T11:24:20.629Z,3.72
2023-05-22T11:27:03.610Z,3.75
2023-05-22T11:29:33.959Z,3.60
2023-05-22T11:32:03.289Z,3.55
2023-05-22T11:34:31.401Z,4.18
2023-05-22T11:37:00.361Z,3.50
2023-05-22T11:39:28.575Z,3.75
2023-05-22T11:41:56.671Z,4.00
2023-05-22T11:44:24.858Z,4.18
2023-05-22T11:46:55.019Z,3.67
2023-05-22T11:49:25.353Z,3.35
2023-05-22T11:51:53.711Z,3.58
2023-05-22T11:54:22.281Z,3.80
2023-05-22T11:56:50.383Z,3.72
2023-05-22T11:59:18.564Z,3.80
2023-05-22T12:01:46.760Z,3.65
2023-05-22T12:04:16.358Z,3.40
2023-05-22T12:06:44.635Z,3.47
2023-05-22T12:09:12.831Z,3.15
2023-05-22T12:11:40.970Z,3.45
2023-05-22T12:14:13.299Z,3.45
2023-05-22T12:16:41.757Z,3.50
2023-05-22T12:19:10.786Z,3.35
2023-05-22T12:21:42.104Z,3.78
2023-05-22T12:24:10.436Z,3.40
2023-05-22T12:26:38.880Z,3.30
2023-05-22T12:29:07.035Z,3.30
2023-05-22T12:31:38.813Z,2.90
2023-05-22T12:34:09.079Z,2.90
2023-05-22T12:36:41.320Z,3.25
2023-05-22T12:39:10.568Z,2.60
2023-05-22T12:41:38.991Z,3.08
2023-05-22T12:44:07.495Z,2.80
2023-05-22T12:46:36.071Z,2.72
2023-05-22T12:49:04.288Z,3.08
2023-05-22T12:51:33.792Z,3.20
2023-05-22T12:54:03.891Z,3.20
2023-05-22T12:56:32.732Z,3.75
2023-05-22T12:59:01.110Z,3.30
2023-05-22T13:01:30.495Z,2.70
2023-05-22T13:03:58.706Z,3.10
2023-05-22T13:06:27.973Z,2.75
2023-05-22T13:08:58.840Z,2.78
2023-05-22T13:11:28.482Z,2.88
2023-05-22T13:13:56.583Z,3.03
2023-05-22T13:16:24.793Z,2.72
2023-05-22T13:18:53.104Z,2.80
2023-05-22T13:21:21.266Z,2.47
2023-05-22T13:23:49.354Z,2.80
2023-05-22T13:26:17.443Z,3.00
2023-05-22T13:28:47.123Z,2.40
2023-05-22T13:31:15.292Z,2.42
2023-05-22T13:33:43.495Z,2.53
2023-05-22T13:36:11.709Z,2.70
2023-05-22T13:38:39.903Z,2.42
2023-05-22T13:41:08.159Z,2.60
2023-05-22T13:43:36.333Z,3.20
2023-05-22T13:46:06.013Z,2.80
2023-05-22T13:48:34.133Z,3.28
2023-05-22T13:51:02.302Z,3.00
2023-05-22T13:53:30.431Z,3.70
2023-05-22T13:55:58.507Z,2.88
2023-05-22T13:58:26.581Z,2.90
2023-05-22T14:00:54.636Z,2.60
2023-05-22T14:03:24.365Z,2.85
2023-05-22T14:05:52.619Z,2.47
2023-05-22T14:08:20.824Z,2.60
2023-05-22T14:10:48.927Z,2.50
2023-05-22T14:13:16.994Z,2.28
2023-05-22T14:15:47.012Z,2.72
2023-05-22T14:18:16.605Z,2.25
2023-05-22T14:20:46.948Z,4.13
2023-05-22T14:23:15.306Z,2.30
2023-05-22T14:25:44.426Z,2.40
2023-05-22T14:28:13.258Z,2.50
2023-05-22T14:30:41.746Z,2.08
2023-05-22T14:33:10.103Z,2.30
2023-05-22T14:35:38.480Z,2.17
2023-05-22T14:38:08.211Z,2.70
2023-05-22T14:40:36.400Z,2.30
2023-05-22T14:43:04.613Z,2.30
2023-05-22T14:45:32.971Z,2.30
2023-05-22T14:48:01.313Z,2.70
2023-05-22T14:50:29.543Z,2.25
2023-05-22T14:52:57.831Z,2.40
2023-05-22T14:55:28.281Z,2.15
2023-05-22T14:57:56.976Z,2.25
2023-05-22T15:00:25.328Z,2.80
2023-05-22T15:02:53.601Z,2.28
2023-05-22T15:05:22.142Z,2.65
2023-05-22T15:10:18.961Z,2.40
2023-05-22T15:12:48.500Z,2.20
2023-05-22T15:15:16.705Z,2.10
2023-05-22T15:17:44.943Z,2.53
2023-05-22T15:20:14.079Z,2.67
2023-05-22T15:22:42.381Z,2.50
2023-05-22T15:25:12.527Z,2.53
2023-05-22T15:27:41.047Z,2.35
2023-05-22T15:30:12.248Z,2.47
2023-05-22T15:32:40.672Z,2.22
2023-05-22T15:35:09.508Z,2.60
2023-05-22T15:37:37.817Z,2.60
2023-05-22T15:40:08.268Z,2.30
2023-05-22T15:42:36.767Z,2.35
2023-05-22T15:45:05.365Z,2.58
2023-05-22T15:47:35.127Z,2.53
2023-05-22T15:50:03.913Z,2.58
2023-05-22T15:52:32.058Z,2.60
2023-05-22T15:55:00.177Z,2.45
2023-05-22T15:57:28.902Z,2.38
2023-05-22T15:59:57.262Z,2.50
2023-05-22T16:02:25.609Z,2.40
2023-05-22T16:04:55.302Z,2.70
2023-05-22T16:07:23.539Z,2.65
2023-05-22T16:09:51.730Z,2.40
2023-05-22T16:12:20.153Z,2.45
2023-05-22T16:14:49.472Z,2.40
2023-05-22T16:17:17.799Z,2.35
2023-05-22T16:19:45.979Z,2.42
2023-05-22T16:22:15.812Z,2.40
2023-05-22T16:24:43.984Z,2.70
2023-05-22T16:27:12.108Z,2.55
2023-05-22T16:29:40.295Z,2.25
2023-05-22T16:32:08.823Z,2.55
2023-05-22T16:34:37.031Z,2.60
2023-05-22T16:37:05.443Z,2.55
2023-05-22T16:39:35.196Z,2.60
2023-05-22T16:42:03.526Z,2.42
2023-05-22T16:44:31.671Z,2.55
2023-05-22T16:46:59.877Z,2.70
2023-05-22T16:49:28.136Z,2.47
2023-05-22T16:51:56.626Z,2.42
2023-05-22T16:54:24.836Z,2.33
2023-05-22T16:56:54.523Z,2.50
2023-05-22T16:59:22.800Z,2.60
2023-05-22T17:01:51.198Z,2.88
2023-05-22T17:04:20.794Z,3.08
2023-05-22T17:06:49.878Z,2.60
2023-05-22T17:09:18.137Z,2.70
2023-05-22T17:11:46.322Z,2.80
2023-05-22T17:14:16.077Z,3.97
2023-05-22T17:16:44.420Z,4.53
2023-05-22T17:19:13.683Z,4.07
2023-05-22T17:21:41.967Z,4.30
2023-05-22T17:24:14.647Z,2.80
2023-05-22T17:26:43.454Z,2.65
2023-05-22T17:29:12.167Z,2.42
2023-05-22T17:31:41.832Z,2.70
2023-05-22T17:34:09.973Z,2.33
2023-05-22T17:36:38.333Z,2.65
2023-05-22T17:39:06.681Z,2.78
2023-05-22T17:41:35.014Z,2.90
2023-05-22T17:44:03.190Z,3.40
2023-05-22T17:46:31.621Z,2.80
2023-05-22T17:49:01.404Z,2.90
2023-05-22T17:51:29.653Z,2.75
2023-05-22T17:53:59.182Z,2.67
2023-05-22T17:56:27.875Z,2.95
2023-05-22T17:58:56.179Z,2.80
2023-05-22T18:01:24.696Z,2.70
2023-05-22T18:03:53.079Z,2.83
2023-05-22T18:06:24.288Z,3.08
2023-05-22T18:08:52.730Z,2.90
2023-05-22T18:11:21.152Z,2.90
2023-05-22T18:13:49.421Z,2.92
2023-05-22T18:16:19.605Z,3.10
2023-05-22T18:18:47.904Z,2.55
2023-05-22T18:21:16.088Z,2.75
2023-05-22T18:23:45.707Z,2.60
2023-05-22T18:26:13.725Z,2.58
2023-05-22T18:28:42.597Z,2.63
2023-05-22T18:31:11.158Z,2.28
2023-05-22T18:33:40.310Z,2.70
2023-05-22T18:36:08.555Z,2.45
2023-05-22T18:38:36.670Z,2.88
2023-05-22T18:41:07.384Z,2.50
2023-05-22T18:43:35.554Z,2.58
2023-05-22T18:46:03.818Z,2.50
2023-05-22T18:48:33.300Z,2.53
2023-05-22T18:51:01.620Z,2.53
2023-05-22T18:53:30.057Z,2.40
2023-05-22T18:55:58.267Z,2.58
2023-05-22T18:58:28.025Z,2.60
2023-05-22T19:00:56.611Z,2.50
2023-05-22T19:03:24.852Z,2.55
2023-05-22T19:05:53.375Z,2.63
2023-05-22T19:08:21.491Z,2.38
2023-05-22T19:10:49.651Z,2.45
2023-05-22T19:13:17.867Z,2.50
2023-05-22T19:15:47.748Z,2.70
2023-05-22T19:18:16.054Z,2.50
2023-05-22T19:20:44.275Z,2.45
2023-05-22T19:23:13.783Z,2.47
2023-05-22T19:25:41.896Z,2.13
2023-05-22T19:28:09.999Z,2.60
2023-05-22T19:30:38.252Z,2.20
2023-05-22T19:33:09.011Z,2.35
2023-05-22T19:35:37.954Z,2.60
2023-05-22T19:38:06.101Z,2.60
2023-05-22T19:40:34.179Z,2.63
2023-05-22T19:43:02.567Z,2.90
2023-05-22T19:45:30.883Z,2.55
2023-05-22T19:47:59.216Z,2.50
2023-05-22T19:50:28.848Z,2.35
2023-05-22T19:52:57.277Z,2.75
2023-05-22T19:55:26.105Z,2.53
2023-05-22T19:57:54.219Z,2.58
2023-05-22T20:00:22.793Z,2.60
2023-05-22T20:02:51.694Z,2.50
2023-05-22T20:05:19.893Z,2.53
2023-05-22T20:07:49.499Z,2.42
2023-05-22T20:10:17.649Z,2.75
2023-05-22T20:12:46.001Z,2.42
2023-05-22T20:15:14.988Z,2.63
2023-05-22T20:17:47.888Z,2.80
2023-05-22T20:20:16.374Z,2.55
2023-05-22T20:22:44.688Z,2.80
2023-05-22T20:25:14.725Z,2.70
2023-05-22T20:27:42.942Z,2.53
2023-05-22T20:30:12.699Z,2.28
2023-05-22T20:32:42.710Z,2.50
2023-05-22T20:35:13.142Z,2.50
2023-05-22T20:37:42.067Z,2.40
2023-05-22T20:40:10.981Z,2.25
2023-05-22T20:42:41.183Z,2.40
2023-05-22T20:45:13.627Z,2.53
2023-05-22T20:47:42.813Z,2.40
2023-05-22T20:50:11.575Z,2.60
2023-05-22T20:52:39.657Z,2.60
2023-05-22T20:55:08.725Z,2.63
2023-05-22T20:57:36.825Z,2.22
2023-05-22T21:00:11.217Z,2.88
2023-05-22T21:02:40.116Z,2.65
2023-05-22T21:05:08.970Z,3.05
2023-05-22T21:07:38.398Z,2.80
2023-05-22T21:10:07.333Z,2.58
2023-05-22T21:12:35.451Z,2.70
2023-05-22T21:15:03.578Z,2.92
2023-05-22T21:17:33.076Z,2.80
2023-05-22T21:20:01.339Z,2.92
2023-05-22T21:22:29.561Z,2.58
2023-05-22T21:24:57.789Z,3.00
2023-05-22T21:27:25.864Z,2.70
2023-05-22T21:29:53.982Z,2.42
2023-05-22T21:32:22.165Z,2.80
2023-05-22T21:34:51.666Z,3.00
2023-05-22T21:37:19.722Z,2.90
2023-05-22T21:39:47.822Z,2.95
2023-05-22T21:42:17.049Z,2.47
2023-05-22T21:44:45.099Z,2.75
2023-05-22T21:47:13.185Z,2.60
2023-05-22T21:49:41.386Z,2.95
2023-05-22T21:52:11.672Z,3.03
2023-05-22T21:54:41.164Z,2.78
2023-05-22T21:57:09.342Z,2.60
2023-05-22T21:59:37.719Z,2.70
2023-05-22T22:02:06.187Z,2.60
2023-05-22T22:04:34.448Z,3.25
2023-05-22T22:07:02.536Z,2.72
2023-05-22T22:09:32.297Z,3.00
2023-05-22T22:12:00.798Z,3.08
2023-05-22T22:14:28.870Z,3.10
2023-05-22T22:16:57.012Z,2.70
2023-05-22T22:19:25.533Z,2.78
2023-05-22T22:21:54.220Z,2.80
2023-05-22T22:24:22.509Z,2.88
2023-05-22T22:26:52.908Z,3.00
2023-05-22T22:29:20.965Z,2.92
2023-05-22T22:31:49.198Z,2.90
2023-05-22T22:34:17.312Z,3.05
2023-05-22T22:36:45.743Z,3.28
2023-05-22T22:39:13.976Z,3.05
2023-05-22T22:41:42.166Z,2.70
2023-05-22T22:44:11.840Z,3.40
2023-05-22T22:46:40.198Z,3.60
2023-05-22T22:49:08.897Z,3.10
2023-05-22T22:51:37.180Z,3.00
2023-05-22T22:54:05.590Z,2.97
2023-05-22T22:56:34.328Z,2.80
2023-05-22T22:59:02.518Z,3.05
2023-05-22T23:01:31.989Z,3.05
2023-05-22T23:04:00.158Z,3.25
2023-05-22T23:06:29.780Z,3.05
2023-05-22T23:08:58.927Z,3.20
2023-05-22T23:11:30.279Z,2.83
2023-05-22T23:13:58.480Z,2.60
2023-05-22T23:16:26.978Z,3.17
2023-05-22T23:18:56.712Z,3.00
2023-05-22T23:21:24.894Z,3.00
2023-05-22T23:23:52.963Z,3.05
2023-05-22T23:26:21.079Z,2.75
2023-05-22T23:28:49.185Z,3.20
2023-05-22T23:31:17.660Z,3.05
2023-05-22T23:33:45.876Z,2.95
2023-05-22T23:36:16.268Z,2.80
2023-05-22T23:38:46.330Z,2.83
2023-05-22T23:41:14.796Z,2.92
2023-05-22T23:43:42.882Z,3.22
2023-05-22T23:46:13.375Z,2.95
2023-05-22T23:48:41.650Z,2.63
2023-05-22T23:51:14.656Z,3.00
2023-05-22T23:53:44.194Z,3.42
2023-05-22T23:56:12.472Z,3.40
2023-05-22T23:58:40.680Z,2.97
